createdAt,value
2023-05-19T00:00:10.176Z,3.30
2023-05-19T00:02:41.221Z,4.45
2023-05-19T00:07:45.261Z,4.03
2023-05-19T00:10:16.403Z,3.35
2023-05-19T00:15:17.596Z,3.65
2023-05-19T00:17:49.102Z,4.57
2023-05-19T00:20:19.743Z,3.53
2023-05-19T00:22:52.786Z,3.97
2023-05-19T00:25:23.319Z,4.32
2023-05-19T00:27:53.760Z,3.60
2023-05-19T00:30:24.776Z,4.40
2023-05-19T00:32:55.316Z,3.45
2023-05-19T00:35:26.381Z,4.50
2023-05-19T00:37:59.358Z,3.95
2023-05-19T00:40:30.721Z,4.65
2023-05-19T00:43:01.364Z,3.08
2023-05-19T00:45:31.754Z,4.20
2023-05-19T00:48:02.225Z,3.17
2023-05-19T00:50:32.974Z,4.18
2023-05-19T00:53:06.184Z,3.83
2023-05-19T00:55:37.318Z,3.47
2023-05-19T01:00:38.880Z,3.47
2023-05-19T01:03:11.699Z,3.08
2023-05-19T01:05:45.084Z,3.10
2023-05-19T01:08:18.422Z,3.50
2023-05-19T01:10:48.803Z,2.58
2023-05-19T01:13:19.305Z,3.65
2023-05-19T01:16:01.454Z,3.88
2023-05-19T01:18:37.575Z,2.92
2023-05-19T01:21:17.378Z,3.55
2023-05-19T01:23:54.384Z,3.20
2023-05-19T01:26:39.878Z,4.03
2023-05-19T01:29:22.087Z,3.95
2023-05-19T01:31:56.672Z,3.38
2023-05-19T01:34:27.286Z,3.35
2023-05-19T01:36:58.430Z,4.00
2023-05-19T01:41:58.940Z,3.97
2023-05-19T01:44:29.443Z,3.13
2023-05-19T01:47:02.866Z,3.50
2023-05-19T01:49:33.195Z,3.55
2023-05-19T01:52:03.724Z,4.28
2023-05-19T01:54:34.068Z,4.47
2023-05-19T01:57:08.106Z,5.07
2023-05-19T01:59:42.934Z,4.03
2023-05-19T02:02:21.983Z,3.92
2023-05-19T02:04:55.172Z,3.92
2023-05-19T02:07:30.232Z,3.58
2023-05-19T02:10:04.245Z,3.03
2023-05-19T02:12:36.439Z,3.70
2023-05-19T02:15:08.974Z,3.03
2023-05-19T02:17:48.026Z,3.35
2023-05-19T02:20:18.878Z,4.03
2023-05-19T02:22:49.536Z,3.78
2023-05-19T02:25:19.937Z,3.60
2023-05-19T02:27:50.351Z,3.15
2023-05-19T02:30:20.706Z,4.25
2023-05-19T02:32:54.604Z,3.92
2023-05-19T02:35:25.208Z,3.33
2023-05-19T02:37:55.583Z,4.65
2023-05-19T02:40:26.088Z,3.60
2023-05-19T02:42:56.470Z,4.70
2023-05-19T02:45:28.832Z,3.88
2023-05-19T02:48:03.160Z,3.90
2023-05-19T02:50:33.802Z,4.57
2023-05-19T02:53:04.444Z,3.72
2023-05-19T02:55:34.857Z,3.47
2023-05-19T02:58:05.679Z,4.20
2023-05-19T03:00:36.119Z,3.83
2023-05-19T03:03:10.909Z,5.28
2023-05-19T03:05:41.428Z,3.30
2023-05-19T03:08:11.849Z,4.30
2023-05-19T03:10:42.174Z,4.70
2023-05-19T03:13:12.715Z,4.05
2023-05-19T03:15:43.337Z,4.07
2023-05-19T03:18:16.854Z,3.88
2023-05-19T03:20:47.561Z,4.85
2023-05-19T03:23:18.083Z,5.32
2023-05-19T03:25:48.552Z,5.20
2023-05-19T03:28:19.153Z,4.40
2023-05-19T03:30:50.347Z,5.18
2023-05-19T03:35:53.614Z,3.85
2023-05-19T03:38:24.092Z,4.88
2023-05-19T03:40:54.680Z,5.78
2023-05-19T03:43:25.161Z,5.72
2023-05-19T03:45:55.583Z,6.60
2023-05-19T03:48:26.987Z,5.45
2023-05-19T03:51:00.006Z,5.88
2023-05-19T03:53:30.668Z,5.10
2023-05-19T03:56:01.392Z,4.22
2023-05-19T03:58:32.357Z,5.78
2023-05-19T04:01:02.734Z,5.40
2023-05-19T04:03:33.264Z,5.82
2023-05-19T04:06:06.419Z,4.85
2023-05-19T04:08:36.929Z,4.93
2023-05-19T04:11:07.381Z,7.40
2023-05-19T04:13:37.897Z,5.97
2023-05-19T04:16:08.645Z,7.13
2023-05-19T04:18:39.100Z,12.40
2023-05-19T04:21:12.099Z,6.97
2023-05-19T04:23:42.710Z,7.40
2023-05-19T04:26:14.974Z,5.97
2023-05-19T04:28:45.394Z,5.35
2023-05-19T04:31:15.789Z,7.07
2023-05-19T04:33:46.342Z,6.97
2023-05-19T04:36:23.928Z,7.72
2023-05-19T04:39:02.537Z,6.82
2023-05-19T04:41:34.023Z,6.80
2023-05-19T04:44:04.504Z,5.28
2023-05-19T04:46:34.861Z,7.45
2023-05-19T04:49:05.284Z,5.53
2023-05-19T04:51:41.640Z,6.47
2023-05-19T04:54:12.038Z,5.05
2023-05-19T04:56:42.370Z,5.45
2023-05-19T04:59:12.859Z,5.05
2023-05-19T05:01:43.435Z,4.93
2023-05-19T05:04:14.317Z,4.70
2023-05-19T05:06:49.243Z,9.73
2023-05-19T05:09:20.138Z,4.28
2023-05-19T05:11:51.707Z,5.57
2023-05-19T05:14:22.486Z,5.38
2023-05-19T05:16:53.743Z,5.57
2023-05-19T05:19:25.108Z,7.65
2023-05-19T05:21:58.484Z,4.55
2023-05-19T05:24:29.252Z,4.13
2023-05-19T05:26:59.655Z,5.43
2023-05-19T05:29:30.101Z,4.18
2023-05-19T05:32:00.788Z,5.80
2023-05-19T05:34:31.346Z,4.90
2023-05-19T05:37:04.313Z,5.10
2023-05-19T05:39:34.809Z,10.30
2023-05-19T05:42:05.228Z,4.00
2023-05-19T05:44:36.082Z,5.40
2023-05-19T05:47:06.718Z,5.72
2023-05-19T05:49:39.652Z,3.85
2023-05-19T05:52:14.413Z,3.47
2023-05-19T05:54:45.212Z,3.60
2023-05-19T05:57:15.941Z,3.00
2023-05-19T05:59:47.384Z,3.50
2023-05-19T06:02:17.769Z,3.55
2023-05-19T06:04:48.420Z,4.18
2023-05-19T06:07:21.505Z,3.75
2023-05-19T06:09:52.031Z,4.10
2023-05-19T06:12:23.210Z,3.65
2023-05-19T06:14:53.650Z,2.80
2023-05-19T06:17:24.012Z,3.45
2023-05-19T06:19:54.454Z,2.22
2023-05-19T06:22:28.119Z,3.83
2023-05-19T06:24:58.543Z,5.13
2023-05-19T06:27:29.019Z,4.30
2023-05-19T06:29:59.475Z,3.28
2023-05-19T06:32:30.056Z,3.50
2023-05-19T06:35:00.610Z,4.07
2023-05-19T06:37:33.572Z,3.22
2023-05-19T06:40:04.455Z,3.40
2023-05-19T06:42:34.892Z,3.63
2023-05-19T06:45:05.466Z,3.97
2023-05-19T06:47:35.901Z,4.07
2023-05-19T06:50:06.429Z,5.32
2023-05-19T06:52:39.463Z,4.78
2023-05-19T06:55:10.471Z,3.85
2023-05-19T06:57:40.918Z,4.03
2023-05-19T07:00:13.974Z,3.17
2023-05-19T07:02:45.734Z,4.28
2023-05-19T07:05:16.345Z,4.13
2023-05-19T07:10:21.680Z,3.70
2023-05-19T07:12:52.093Z,3.67
2023-05-19T07:15:22.533Z,3.35
2023-05-19T07:17:52.958Z,3.83
2023-05-19T07:20:23.590Z,4.90
2023-05-19T07:22:53.995Z,3.67
2023-05-19T07:25:28.989Z,3.22
2023-05-19T07:27:59.409Z,4.32
2023-05-19T07:30:30.587Z,3.72
2023-05-19T07:33:01.171Z,5.10
2023-05-19T07:35:31.647Z,3.88
2023-05-19T07:38:02.531Z,4.25
2023-05-19T07:40:35.509Z,3.70
2023-05-19T07:43:05.987Z,3.80
2023-05-19T07:45:36.468Z,3.72
2023-05-19T07:48:08.072Z,5.07
2023-05-19T07:50:38.612Z,4.22
2023-05-19T07:53:08.998Z,3.88
2023-05-19T07:55:42.023Z,3.50
2023-05-19T07:58:12.388Z,3.40
2023-05-19T08:00:43.460Z,3.88
2023-05-19T08:03:14.041Z,3.53
2023-05-19T08:08:17.121Z,3.85
2023-05-19T08:10:50.311Z,3.58
2023-05-19T08:13:20.669Z,3.88
2023-05-19T08:15:51.313Z,4.60
2023-05-19T08:20:52.104Z,4.03
2023-05-19T08:23:22.478Z,3.15
2023-05-19T08:25:55.499Z,3.55
2023-05-19T08:28:25.909Z,4.47
2023-05-19T08:30:56.578Z,3.50
2023-05-19T08:33:27.983Z,3.92
2023-05-19T08:35:59.860Z,3.67
2023-05-19T08:38:30.233Z,2.95
2023-05-19T08:41:03.225Z,4.18
2023-05-19T08:43:33.639Z,4.15
2023-05-19T08:46:04.272Z,4.45
2023-05-19T08:48:35.613Z,3.78
2023-05-19T08:51:14.892Z,2.95
2023-05-19T08:53:51.478Z,3.70
2023-05-19T08:58:56.817Z,3.78
2023-05-19T09:01:29.133Z,3.47
2023-05-19T09:03:59.469Z,7.80
2023-05-19T09:06:32.615Z,3.90
2023-05-19T09:09:02.827Z,6.28
2023-05-19T09:11:37.743Z,2.60
2023-05-19T09:14:08.324Z,3.40
2023-05-19T09:16:38.616Z,3.58
2023-05-19T09:19:08.963Z,3.75
2023-05-19T09:21:39.132Z,3.65
2023-05-19T09:24:10.905Z,4.18
2023-05-19T09:26:45.676Z,2.88
2023-05-19T09:29:16.351Z,2.92
2023-05-19T09:31:52.440Z,3.47
2023-05-19T09:34:25.040Z,3.47
2023-05-19T09:36:58.034Z,3.70
2023-05-19T09:39:29.075Z,4.10
2023-05-19T09:42:01.889Z,3.15
2023-05-19T09:44:32.984Z,3.67
2023-05-19T09:47:03.768Z,2.40
2023-05-19T09:49:34.353Z,2.80
2023-05-19T09:52:06.516Z,2.75
2023-05-19T09:54:38.080Z,3.10
2023-05-19T09:57:11.444Z,3.20
2023-05-19T09:59:42.502Z,2.55
2023-05-19T10:02:14.645Z,3.35
2023-05-19T10:04:45.968Z,2.28
2023-05-19T10:07:18.783Z,2.83
2023-05-19T10:09:49.787Z,2.80
2023-05-19T10:12:22.826Z,2.55
2023-05-19T10:14:55.006Z,3.13
2023-05-19T10:17:26.174Z,3.03
2023-05-19T10:19:58.078Z,9.45
2023-05-19T10:22:28.740Z,3.88
2023-05-19T10:24:59.244Z,2.83
2023-05-19T10:27:32.964Z,2.90
2023-05-19T10:30:05.885Z,3.25
2023-05-19T10:32:37.236Z,2.25
2023-05-19T10:35:14.259Z,2.42
2023-05-19T10:37:48.120Z,2.33
2023-05-19T10:40:29.198Z,2.75
2023-05-19T10:43:12.012Z,2.55
2023-05-19T10:45:54.779Z,2.90
2023-05-19T10:48:25.404Z,2.13
2023-05-19T10:50:57.440Z,2.60
2023-05-19T10:53:35.283Z,2.38
2023-05-19T10:56:07.762Z,3.35
2023-05-19T10:58:53.367Z,2.83
2023-05-19T11:01:25.068Z,3.53
2023-05-19T11:03:57.579Z,2.38
2023-05-19T11:06:32.648Z,3.00
2023-05-19T11:09:05.693Z,2.80
2023-05-19T11:11:48.793Z,3.25
2023-05-19T11:14:23.634Z,2.65
2023-05-19T11:16:55.617Z,2.80
2023-05-19T11:19:30.751Z,3.33
2023-05-19T11:22:11.046Z,3.20
2023-05-19T11:24:42.928Z,3.75
2023-05-19T11:27:38.666Z,3.83
2023-05-19T11:32:47.129Z,2.42
2023-05-19T11:35:19.268Z,2.08
2023-05-19T11:37:52.595Z,3.45
2023-05-19T11:40:24.823Z,2.78
2023-05-19T11:42:54.993Z,2.30
2023-05-19T11:48:03.127Z,3.40
2023-05-19T11:50:35.554Z,3.33
2023-05-19T11:53:05.850Z,2.85
2023-05-19T11:55:37.085Z,3.25
2023-05-19T11:58:07.719Z,3.70
2023-05-19T12:00:42.914Z,3.10
2023-05-19T12:03:14.586Z,3.80
2023-05-19T12:05:49.900Z,5.15
2023-05-19T12:08:21.780Z,4.07
2023-05-19T12:10:53.458Z,8.02
2023-05-19T12:13:23.987Z,3.10
2023-05-19T12:15:57.346Z,3.55
2023-05-19T12:18:31.710Z,3.70
2023-05-19T12:21:02.236Z,3.58
2023-05-19T12:23:33.224Z,2.90
2023-05-19T12:26:03.981Z,3.10
2023-05-19T12:28:34.469Z,3.60
2023-05-19T12:31:07.528Z,3.88
2023-05-19T12:33:37.917Z,2.33
2023-05-19T12:38:39.854Z,3.40
2023-05-19T12:41:10.437Z,2.50
2023-05-19T12:43:40.775Z,3.15
2023-05-19T12:46:17.559Z,2.85
2023-05-19T12:48:48.311Z,6.93
2023-05-19T12:51:21.988Z,3.65
2023-05-19T12:53:53.898Z,3.40
2023-05-19T12:56:24.557Z,2.70
2023-05-19T12:58:57.569Z,3.42
2023-05-19T13:01:33.638Z,3.50
2023-05-19T13:04:05.544Z,3.25
2023-05-19T13:06:36.875Z,3.55
2023-05-19T13:09:07.476Z,4.10
2023-05-19T13:11:38.013Z,2.72
2023-05-19T13:21:51.427Z,2.40
2023-05-19T13:24:21.851Z,3.72
2023-05-19T13:26:53.874Z,3.35
2023-05-19T13:29:24.383Z,2.22
2023-05-19T13:31:54.890Z,2.53
2023-05-19T13:36:59.218Z,2.85
2023-05-19T13:39:29.729Z,3.15
2023-05-19T13:52:03.387Z,2.28
2023-05-19T13:54:33.999Z,2.97
2023-05-19T13:57:04.820Z,3.55
2023-05-19T13:59:37.275Z,3.92
2023-05-19T14:02:13.596Z,2.60
2023-05-19T14:04:43.957Z,2.38
2023-05-19T14:07:17.018Z,2.03
2023-05-19T14:09:47.351Z,2.75
2023-05-19T14:12:17.827Z,2.53
2023-05-19T14:17:19.629Z,2.33
2023-05-19T14:22:22.609Z,2.38
2023-05-19T14:24:52.810Z,2.95
2023-05-19T14:27:23.023Z,2.17
2023-05-19T14:29:53.446Z,2.88
2023-05-19T14:32:24.080Z,2.72
2023-05-19T14:34:54.356Z,2.75
2023-05-19T14:37:29.133Z,2.72
2023-05-19T14:40:00.917Z,2.90
2023-05-19T14:42:31.360Z,2.85
2023-05-19T14:45:01.524Z,3.03
2023-05-19T14:47:31.804Z,2.28
2023-05-19T14:50:02.128Z,2.50
2023-05-19T14:52:34.956Z,2.53
2023-05-19T14:55:05.437Z,2.53
2023-05-19T15:00:05.753Z,2.83
2023-05-19T15:02:36.086Z,2.83
2023-05-19T15:05:06.515Z,3.20
2023-05-19T15:07:39.394Z,2.90
2023-05-19T15:10:10.640Z,2.72
2023-05-19T15:12:40.921Z,2.63
2023-05-19T15:15:12.699Z,2.13
2023-05-19T15:17:43.350Z,2.75
2023-05-19T15:20:14.395Z,2.40
2023-05-19T15:22:47.235Z,3.10
2023-05-19T15:25:17.459Z,2.90
2023-05-19T15:27:48.006Z,2.47
2023-05-19T15:30:18.360Z,2.15
2023-05-19T15:32:48.590Z,2.67
2023-05-19T15:35:19.016Z,3.53
2023-05-19T15:37:51.935Z,2.97
2023-05-19T15:40:22.314Z,2.80
2023-05-19T15:42:52.557Z,2.35
2023-05-19T15:45:22.976Z,2.50
2023-05-19T15:47:53.433Z,2.38
2023-05-19T15:52:56.433Z,2.58
2023-05-19T15:55:26.649Z,2.20
2023-05-19T15:57:56.862Z,2.28
2023-05-19T16:00:27.270Z,2.40
2023-05-19T16:02:57.719Z,3.17
2023-05-19T16:05:28.332Z,2.08
2023-05-19T16:08:01.296Z,2.85
2023-05-19T16:10:33.698Z,2.95
2023-05-19T16:13:04.252Z,2.85
2023-05-19T16:15:34.460Z,2.17
2023-05-19T16:18:04.782Z,2.65
2023-05-19T16:20:35.275Z,2.50
2023-05-19T16:25:38.252Z,2.42
2023-05-19T16:28:08.902Z,2.35
2023-05-19T16:30:39.059Z,2.47
2023-05-19T16:33:09.548Z,2.88
2023-05-19T16:38:12.535Z,1.88
2023-05-19T16:40:42.899Z,2.05
2023-05-19T16:43:13.134Z,1.73
2023-05-19T16:45:43.619Z,2.55
2023-05-19T16:48:14.417Z,2.47
2023-05-19T16:53:17.650Z,1.98
2023-05-19T16:55:48.028Z,2.83
2023-05-19T16:58:18.448Z,2.72
2023-05-19T17:00:48.726Z,3.15
2023-05-19T17:03:19.032Z,2.70
2023-05-19T17:05:49.310Z,2.95
2023-05-19T17:08:22.126Z,2.30
2023-05-19T17:10:52.537Z,2.47
2023-05-19T17:13:22.732Z,3.03
2023-05-19T17:15:55.378Z,2.15
2023-05-19T17:18:25.622Z,2.75
2023-05-19T17:20:56.089Z,2.33
2023-05-19T17:23:28.947Z,2.40
2023-05-19T17:25:59.064Z,2.30
2023-05-19T17:28:29.231Z,3.22
2023-05-19T17:30:59.449Z,2.67
2023-05-19T17:33:29.642Z,3.55
2023-05-19T17:36:00.314Z,2.67
2023-05-19T17:38:33.177Z,2.22
2023-05-19T17:41:04.987Z,3.00
2023-05-19T17:43:35.362Z,3.13
2023-05-19T17:46:05.688Z,2.60
2023-05-19T17:48:36.497Z,4.82
2023-05-19T17:51:07.301Z,3.63
2023-05-19T17:53:40.989Z,2.63
2023-05-19T17:56:13.433Z,3.35
2023-05-19T17:58:44.553Z,2.28
2023-05-19T18:01:15.172Z,2.45
2023-05-19T18:06:20.568Z,1.90
2023-05-19T18:08:54.169Z,2.67
2023-05-19T18:11:24.997Z,2.67
2023-05-19T18:13:55.243Z,2.63
2023-05-19T18:16:25.914Z,2.63
2023-05-19T18:21:27.044Z,2.47
2023-05-19T18:24:03.205Z,2.00
2023-05-19T18:26:33.736Z,1.85
2023-05-19T18:29:05.152Z,2.05
2023-05-19T18:31:35.408Z,2.15
2023-05-19T18:34:05.888Z,1.98
2023-05-19T18:36:36.240Z,3.72
2023-05-19T18:39:09.043Z,2.47
2023-05-19T18:41:41.561Z,2.38
2023-05-19T18:44:11.786Z,2.45
2023-05-19T18:46:42.152Z,2.30
2023-05-19T18:49:12.352Z,2.80
2023-05-19T18:51:42.772Z,2.63
2023-05-19T18:54:15.563Z,3.10
2023-05-19T18:56:45.734Z,2.67
2023-05-19T18:59:16.148Z,3.22
2023-05-19T19:01:46.533Z,2.25
2023-05-19T19:04:17.692Z,1.92
2023-05-19T19:06:48.105Z,3.00
2023-05-19T19:09:20.922Z,3.78
2023-05-19T19:11:51.269Z,2.22
2023-05-19T19:14:21.801Z,2.50
2023-05-19T19:16:52.078Z,2.40
2023-05-19T19:19:24.241Z,3.25
2023-05-19T19:21:54.479Z,2.63
2023-05-19T19:24:28.734Z,3.05
2023-05-19T19:26:59.121Z,3.20
2023-05-19T19:29:29.582Z,2.58
2023-05-19T19:31:59.875Z,3.25
2023-05-19T19:34:30.467Z,2.67
2023-05-19T19:37:00.647Z,3.50
2023-05-19T19:39:33.509Z,2.45
2023-05-19T19:42:03.695Z,2.70
2023-05-19T19:44:33.991Z,2.47
2023-05-19T19:47:06.302Z,2.85
2023-05-19T19:49:36.631Z,2.65
2023-05-19T19:52:07.163Z,3.17
2023-05-19T19:54:40.012Z,4.03
2023-05-19T19:57:11.977Z,2.70
2023-05-19T19:59:42.168Z,2.45
2023-05-19T20:02:12.481Z,2.33
2023-05-19T20:04:42.986Z,2.42
2023-05-19T20:07:13.200Z,1.98
2023-05-19T20:09:46.061Z,2.78
2023-05-19T20:12:16.159Z,2.38
2023-05-19T20:14:46.398Z,1.95
2023-05-19T20:17:16.770Z,2.28
2023-05-19T20:19:47.279Z,2.15
2023-05-19T20:22:17.671Z,3.58
2023-05-19T20:24:50.779Z,2.85
2023-05-19T20:27:21.164Z,2.83
2023-05-19T20:29:51.609Z,2.25
2023-05-19T20:32:22.057Z,2.08
2023-05-19T20:34:52.573Z,2.70
2023-05-19T20:37:23.169Z,2.85
2023-05-19T20:39:56.205Z,3.05
2023-05-19T20:42:26.589Z,2.55
2023-05-19T20:44:57.617Z,2.67
2023-05-19T20:47:30.314Z,3.40
2023-05-19T20:50:01.635Z,3.75
2023-05-19T20:52:32.486Z,2.83
2023-05-19T20:55:05.694Z,2.95
2023-05-19T20:57:36.129Z,2.25
2023-05-19T21:00:07.025Z,3.65
2023-05-19T21:02:37.433Z,3.67
2023-05-19T21:05:08.218Z,2.53
2023-05-19T21:10:14.013Z,2.42
2023-05-19T21:12:44.373Z,2.58
2023-05-19T21:15:15.386Z,2.72
2023-05-19T21:17:46.837Z,2.70
2023-05-19T21:20:17.468Z,3.42
2023-05-19T21:22:47.829Z,2.78
2023-05-19T21:25:21.060Z,3.53
2023-05-19T21:27:51.813Z,2.92
2023-05-19T21:30:23.806Z,3.30
2023-05-19T21:32:54.480Z,2.75
2023-05-19T21:35:24.955Z,3.10
2023-05-19T21:37:55.941Z,3.10
2023-05-19T21:40:29.005Z,2.47
2023-05-19T21:42:59.342Z,4.80
2023-05-19T21:45:29.747Z,3.35
2023-05-19T21:48:00.200Z,3.45
2023-05-19T21:50:30.995Z,3.90
2023-05-19T21:53:02.870Z,3.05
2023-05-19T21:55:35.983Z,3.50
2023-05-19T21:58:06.358Z,3.42
2023-05-19T22:00:37.075Z,4.40
2023-05-19T22:03:07.611Z,2.92
2023-05-19T22:05:38.528Z,2.60
2023-05-19T22:08:09.099Z,3.50
2023-05-19T22:10:42.430Z,3.47
2023-05-19T22:13:12.780Z,3.53
2023-05-19T22:15:43.320Z,3.25
2023-05-19T22:18:13.710Z,3.38
2023-05-19T22:20:44.100Z,3.30
2023-05-19T22:23:14.527Z,2.97
2023-05-19T22:25:47.505Z,2.88
2023-05-19T22:28:17.905Z,3.95
2023-05-19T22:30:48.305Z,3.80
2023-05-19T22:33:18.646Z,3.35
2023-05-19T22:35:49.157Z,3.60
2023-05-19T22:38:19.543Z,3.88
2023-05-19T22:40:52.957Z,3.42
2023-05-19T22:43:23.314Z,4.13
2023-05-19T22:45:53.739Z,3.90
2023-05-19T22:48:24.431Z,5.10
2023-05-19T22:50:54.863Z,3.75
2023-05-19T22:53:25.300Z,4.43
2023-05-19T22:55:58.367Z,5.15
2023-05-19T22:58:28.862Z,4.18
2023-05-19T23:00:59.344Z,3.35
2023-05-19T23:03:29.758Z,4.57
2023-05-19T23:06:00.381Z,4.53
2023-05-19T23:08:30.722Z,4.13
2023-05-19T23:11:05.912Z,3.25
2023-05-19T23:13:36.283Z,3.25
2023-05-19T23:16:07.901Z,2.95
2023-05-19T23:18:38.318Z,4.65
2023-05-19T23:21:08.804Z,3.63
2023-05-19T23:23:39.327Z,4.22
2023-05-19T23:26:13.653Z,4.18
2023-05-19T23:28:45.166Z,3.75
2023-05-19T23:31:15.815Z,4.88
2023-05-19T23:33:46.224Z,3.13
2023-05-19T23:36:16.841Z,2.95
2023-05-19T23:38:47.193Z,4.68
2023-05-19T23:41:20.175Z,3.63
2023-05-19T23:43:50.628Z,2.42
2023-05-19T23:46:21.244Z,3.00
2023-05-19T23:48:51.690Z,3.25
2023-05-19T23:51:22.199Z,4.00
2023-05-19T23:53:52.557Z,4.43
2023-05-19T23:56:25.531Z,3.30
2023-05-19T23:58:55.893Z,3.60
